Time;durP1;ratioP1;P1;durP2;ratioP2;P2;SDS_P1;SDS_P2;PMS_P1;PMS_P2;Temp;Humidity;BMP_temperature;BMP_pressure;BME280_temperature;BME280_humidity;BME280_pressure;Samples;Min_cycle;Max_cycle;Signal;HPM_P1;HPM_P2
2023/09/05 00:00:01;;;;;;;2.83;2.30;;;24.10;53.40;24.90;101242.00;;;;5049483;28;20177;-55
2023/09/05 00:02:27;;;;;;;2.70;2.50;;;24.10;53.60;24.90;101235.00;;;;5048052;28;20241;-55
2023/09/05 00:04:56;;;;;;;2.20;2.10;;;24.10;53.50;24.90;101235.00;;;;5048198;28;20234;-55
2023/09/05 00:07:22;;;;;;;2.83;2.63;;;24.10;53.50;24.90;101227.00;;;;5047857;28;20678;-56
2023/09/05 00:09:48;;;;;;;3.10;2.80;;;24.10;53.60;24.90;101229.00;;;;5048154;28;20227;-55
2023/09/05 00:12:14;;;;;;;2.85;2.60;;;24.10;53.20;24.80;101226.00;;;;5030312;28;20179;-55
2023/09/05 00:14:39;;;;;;;2.55;2.35;;;24.00;53.20;24.80;101221.00;;;;5048036;28;20183;-54
2023/09/05 00:17:05;;;;;;;2.78;2.58;;;24.00;53.40;24.80;101217.00;;;;5047645;28;20560;-55
2023/09/05 00:19:31;;;;;;;2.83;2.50;;;24.00;53.40;24.80;101218.00;;;;5047989;28;20209;-56
2023/09/05 00:21:57;;;;;;;2.30;2.10;;;24.00;53.20;24.80;101218.00;;;;5030108;28;20190;-56
2023/09/05 00:24:36;;;;;;;2.70;2.50;;;24.00;53.20;24.80;101225.00;;;;5047894;28;20198;-55
2023/09/05 00:27:07;;;;;;;3.75;2.40;;;24.00;53.30;24.70;101214.00;;;;5031472;28;20270;-56
2023/09/05 00:29:32;;;;;;;2.50;2.30;;;24.00;53.10;24.70;101211.00;;;;5038601;28;20261;-55
2023/09/05 00:31:59;;;;;;;3.00;2.30;;;24.00;53.20;24.70;101208.00;;;;5050913;28;20320;-56
2023/09/05 00:34:29;;;;;;;2.60;2.40;;;24.00;53.20;24.70;101210.00;;;;5048062;28;20190;-55
2023/09/05 00:36:55;;;;;;;2.50;2.30;;;24.00;53.00;24.70;101204.00;;;;5047970;28;20194;-54
2023/09/05 00:39:21;;;;;;;2.85;2.50;;;23.90;53.00;24.70;101211.00;;;;5047914;28;20182;-56
2023/09/05 00:41:47;;;;;;;2.65;2.45;;;24.00;53.00;24.70;101217.00;;;;5051040;28;20259;-55
2023/09/05 00:44:14;;;;;;;3.53;2.85;;;23.90;52.80;24.70;101215.00;;;;5052745;28;20560;-55
2023/09/05 00:46:44;;;;;;;2.65;2.45;;;23.90;52.80;24.70;101205.00;;;;5047404;28;20221;-54
2023/09/05 00:49:10;;;;;;;3.30;2.40;;;23.90;52.90;24.60;101204.00;;;;5029930;28;20185;-55
2023/09/05 00:51:37;;;;;;;2.90;2.60;;;23.90;52.60;24.60;101212.00;;;;5029755;28;20623;-55
2023/09/05 00:54:05;;;;;;;2.50;2.30;;;23.90;52.70;24.60;101217.00;;;;5029650;28;20174;-54
2023/09/05 00:56:32;;;;;;;2.58;2.38;;;23.90;52.80;24.60;101211.00;;;;5047441;28;20271;-55
2023/09/05 00:58:59;;;;;;;2.75;2.45;;;23.90;52.90;24.60;101208.00;;;;5047441;28;20174;-55
2023/09/05 01:01:24;;;;;;;2.85;2.50;;;23.80;52.80;24.60;101211.00;;;;5047367;28;20194;-54
2023/09/05 01:03:51;;;;;;;2.75;2.47;;;23.80;52.80;24.60;101202.00;;;;5047321;28;20222;-55
2023/09/05 01:06:37;;;;;;;3.05;2.70;;;23.90;52.70;24.60;101212.00;;;;5013285;28;20206;-55
2023/09/05 01:09:12;;;;;;;2.80;2.50;;;23.80;52.70;24.60;101203.00;;;;5051640;28;20193;-55
2023/09/05 01:11:38;;;;;;;2.58;2.38;;;23.80;52.80;24.60;101205.00;;;;5033784;28;20540;-55
2023/09/05 01:14:04;;;;;;;2.58;2.35;;;23.80;52.70;24.50;101203.00;;;;5033317;28;20174;-55
2023/09/05 01:16:30;;;;;;;2.55;2.35;;;23.80;52.70;24.50;101222.00;;;;5050824;28;20202;-55
2023/09/05 01:18:56;;;;;;;3.53;2.47;;;23.80;52.60;24.50;101218.00;;;;5051024;28;20221;-55
2023/09/05 01:21:39;;;;;;;2.55;2.35;;;23.80;52.80;24.50;101218.00;;;;5032989;28;20600;-55
2023/09/05 01:24:20;;;;;;;2.60;2.40;;;23.80;52.80;24.50;101212.00;;;;5002203;28;20660;-55
2023/09/05 01:26:47;;;;;;;2.90;2.60;;;23.80;52.80;24.50;101209.00;;;;5051125;28;20198;-55
2023/09/05 01:29:15;;;;;;;3.05;2.40;;;23.80;52.50;24.50;101211.00;;;;5033662;28;20174;-54
2023/09/05 01:31:41;;;;;;;2.60;2.40;;;23.80;52.70;24.40;101209.00;;;;5033422;28;20175;-54
2023/09/05 01:34:07;;;;;;;2.63;2.42;;;23.80;52.80;24.40;101217.00;;;;5000834;28;20277;-54
2023/09/05 01:36:33;;;;;;;2.60;2.40;;;23.70;52.60;24.40;101206.00;;;;5050375;28;20393;-55
2023/09/05 01:38:59;;;;;;;3.08;2.60;;;23.70;52.60;24.40;101216.00;;;;5051117;28;20177;-56
2023/09/05 01:41:24;;;;;;;2.58;2.38;;;23.70;52.60;24.40;101217.00;;;;5050917;28;20189;-55
2023/09/05 01:43:50;;;;;;;2.50;2.30;;;23.70;52.80;24.40;101211.00;;;;5050948;28;20181;-54
2023/09/05 01:46:16;;;;;;;3.43;2.73;;;23.70;52.80;24.40;101209.00;;;;5050387;28;20232;-54
2023/09/05 01:48:41;;;;;;;2.60;2.40;;;23.70;52.80;24.40;101215.00;;;;5049883;28;20174;-55
2023/09/05 01:51:07;;;;;;;2.67;2.47;;;23.70;52.80;24.20;101215.00;;;;5050608;28;20182;-56
2023/09/05 01:53:33;;;;;;;2.50;2.30;;;23.70;52.80;24.40;101219.00;;;;5050652;28;20641;-55
2023/09/05 01:55:59;;;;;;;2.87;2.50;;;23.70;52.90;24.40;101209.00;;;;5050077;28;20260;-56
2023/09/05 01:58:25;;;;;;;3.03;2.70;;;23.70;52.80;24.40;101222.00;;;;5032493;28;20281;-56
2023/09/05 02:00:50;;;;;;;2.50;2.30;;;23.60;52.90;24.30;101220.00;;;;5050423;28;20198;-55
2023/09/05 02:03:16;;;;;;;2.57;2.37;;;23.60;52.90;24.10;101209.00;;;;5050600;28;20535;-56
2023/09/05 02:05:42;;;;;;;2.72;2.40;;;23.60;52.90;24.30;101219.00;;;;5050179;28;20213;-56
2023/09/05 02:08:07;;;;;;;2.67;2.10;;;23.60;53.20;24.30;101214.00;;;;5050306;28;20177;-56
2023/09/05 02:10:33;;;;;;;2.60;2.40;;;23.60;53.10;24.30;101213.00;;;;5050321;28;20166;-56
2023/09/05 02:12:59;;;;;;;2.50;2.30;;;23.60;53.10;24.30;101215.00;;;;5050280;28;20178;-55
2023/09/05 02:15:27;;;;;;;2.40;2.20;;;23.60;53.20;24.30;101221.00;;;;5041990;28;20174;-56
2023/09/05 02:17:55;;;;;;;2.90;2.60;;;23.60;53.20;24.30;101214.00;;;;5050304;28;20674;-55
2023/09/05 02:20:22;;;;;;;2.60;2.40;;;23.60;53.20;24.30;101225.00;;;;5050381;28;20190;-56
2023/09/05 02:22:48;;;;;;;2.70;2.50;;;23.50;53.10;24.30;101213.00;;;;5050591;28;20186;-56
2023/09/05 02:25:14;;;;;;;2.50;2.30;;;23.60;53.20;24.30;101216.00;;;;5050356;28;20283;-55
2023/09/05 02:27:40;;;;;;;2.47;2.28;;;23.60;53.30;24.30;101216.00;;;;5050016;28;20244;-54
2023/09/05 02:30:07;;;;;;;2.70;2.50;;;23.60;53.30;24.20;101211.00;;;;5055992;28;20182;-56
2023/09/05 02:32:33;;;;;;;2.60;2.40;;;23.60;53.50;24.20;101216.00;;;;5052596;28;20852;-56
2023/09/05 02:34:59;;;;;;;2.83;2.30;;;23.50;53.30;24.20;101217.00;;;;5050072;28;20253;-56
2023/09/05 02:37:25;;;;;;;3.15;2.70;;;23.50;53.50;24.20;101215.00;;;;5049634;28;20205;-56
2023/09/05 02:39:52;;;;;;;4.13;2.90;;;23.50;53.60;24.00;101210.00;;;;5050087;28;20658;-55
2023/09/05 02:42:18;;;;;;;5.10;2.60;;;23.50;53.70;24.20;101208.00;;;;5050042;28;20239;-56
2023/09/05 02:44:44;;;;;;;3.77;2.63;;;23.50;53.50;24.20;101215.00;;;;5055198;28;20198;-56
2023/09/05 02:47:09;;;;;;;2.88;2.60;;;23.50;53.60;24.20;101211.00;;;;5052049;28;20250;-55
2023/09/05 02:49:35;;;;;;;2.97;2.47;;;23.40;53.50;24.20;101208.00;;;;5049654;28;20657;-55
2023/09/05 02:52:01;;;;;;;3.10;2.35;;;23.50;53.70;24.20;101203.00;;;;5038976;28;20304;-55
2023/09/05 02:54:30;;;;;;;2.90;2.60;;;23.40;53.50;24.10;101213.00;;;;5046261;28;20210;-54
2023/09/05 02:56:55;;;;;;;2.53;2.33;;;23.40;53.60;24.10;101211.00;;;;5042240;28;20198;-55
2023/09/05 02:59:22;;;;;;;2.53;2.33;;;23.40;53.60;24.10;101212.00;;;;5042570;28;20307;-55
2023/09/05 03:01:48;;;;;;;2.92;2.72;;;23.40;53.70;24.10;101200.00;;;;5055331;28;20190;-55
2023/09/05 03:04:16;;;;;;;3.00;2.30;;;23.40;53.70;24.10;101202.00;;;;5050398;28;20647;-55
2023/09/05 03:07:32;;;;;;;2.47;2.27;;;23.40;53.70;24.10;101194.00;;;;5552713;22;20221;-54
2023/09/05 03:09:58;;;;;;;2.50;2.30;;;23.40;53.70;23.90;101207.00;;;;5038147;28;20232;-53
2023/09/05 03:12:23;;;;;;;3.13;2.50;;;23.40;53.80;24.00;101198.00;;;;5039503;28;20671;-55
2023/09/05 03:14:49;;;;;;;2.50;2.30;;;23.30;53.70;24.00;101193.00;;;;5049976;28;20174;-55
2023/09/05 03:17:15;;;;;;;3.53;2.67;;;23.40;53.70;24.00;101184.00;;;;5049452;28;20228;-55
2023/09/05 03:19:41;;;;;;;2.77;2.50;;;23.30;53.70;24.00;101192.00;;;;5055513;28;20236;-54
2023/09/05 03:22:06;;;;;;;2.50;2.30;;;23.40;53.70;24.00;101189.00;;;;5050140;28;20859;-54
2023/09/05 03:24:35;;;;;;;2.70;2.50;;;23.30;53.70;24.00;101188.00;;;;5048878;28;20221;-55
2023/09/05 03:27:02;;;;;;;2.87;2.57;;;23.30;53.70;23.90;101192.00;;;;5049347;28;20252;-55
2023/09/05 03:29:28;;;;;;;2.60;2.40;;;23.30;53.80;23.90;101187.00;;;;5049219;28;20193;-55
2023/09/05 03:31:53;;;;;;;4.80;2.60;;;23.30;54.10;24.00;101191.00;;;;5054484;28;20179;-55
2023/09/05 03:34:19;;;;;;;3.13;2.40;;;23.30;54.40;24.00;101205.00;;;;5049686;28;20186;-55
2023/09/05 03:36:45;;;;;;;2.50;2.23;;;23.30;54.90;24.00;101185.00;;;;5049900;28;20209;-54
2023/09/05 03:39:10;;;;;;;2.87;2.53;;;23.30;54.90;24.00;101186.00;;;;5050129;28;20564;-54
2023/09/05 03:41:36;;;;;;;2.90;2.60;;;23.30;54.90;24.00;101177.00;;;;5050370;28;20780;-54
2023/09/05 03:44:02;;;;;;;4.57;2.73;;;23.30;55.10;24.00;101180.00;;;;5049791;28;20182;-54
2023/09/05 03:46:27;;;;;;;2.73;2.53;;;23.30;55.30;24.00;101184.00;;;;5041205;28;20190;-54
2023/09/05 03:48:55;;;;;;;3.87;2.40;;;23.30;55.30;24.00;101181.00;;;;5050110;28;20614;-53
2023/09/05 03:51:21;;;;;;;4.63;2.57;;;23.30;55.50;24.00;101185.00;;;;5049650;28;20828;-55
2023/09/05 03:53:47;;;;;;;6.50;2.80;;;23.30;55.60;24.00;101169.00;;;;5049818;28;20194;-54
2023/09/05 03:56:13;;;;;;;4.13;2.60;;;23.30;55.70;24.00;101180.00;;;;5040381;28;20702;-54
2023/09/05 03:58:39;;;;;;;4.50;2.40;;;23.30;55.80;24.00;101176.00;;;;5049773;28;20182;-54
2023/09/05 04:01:12;;;;;;;3.73;2.70;;;23.30;55.90;24.00;101173.00;;;;5049025;28;20186;-54
2023/09/05 04:03:37;;;;;;;6.63;2.60;;;23.30;55.90;24.00;101175.00;;;;5049357;28;20186;-55
2023/09/05 04:06:03;;;;;;;4.73;2.57;;;23.30;56.00;24.00;101109.00;;;;5049437;28;20217;-54
2023/09/05 04:08:29;;;;;;;3.13;2.83;;;23.30;56.10;24.00;101177.00;;;;5049205;28;20234;-53
2023/09/05 04:10:59;;;;;;;4.47;2.67;;;23.30;56.20;24.00;101178.00;;;;5035128;28;20212;-54
2023/09/05 04:13:26;;;;;;;4.43;2.40;;;23.30;56.20;24.00;101182.00;;;;5050783;28;20232;-54
2023/09/05 04:15:52;;;;;;;4.47;2.50;;;23.30;56.30;24.00;101176.00;;;;5048099;28;20195;-53
2023/09/05 04:18:18;;;;;;;4.27;2.40;;;23.20;56.30;24.00;101185.00;;;;5049065;28;20732;-54
2023/09/05 04:20:44;;;;;;;5.93;2.60;;;23.30;56.40;24.00;101171.00;;;;5038557;28;20221;-55
2023/09/05 04:23:10;;;;;;;3.47;2.47;;;23.30;56.30;24.00;101177.00;;;;5048759;28;20541;-54
2023/09/05 04:25:39;;;;;;;2.60;2.40;;;23.30;55.90;24.00;101186.00;;;;5052279;28;20216;-54
2023/09/05 04:28:06;;;;;;;4.07;2.60;;;23.30;56.00;24.00;101174.00;;;;5058435;28;20216;-53
2023/09/05 04:30:35;;;;;;;4.17;2.47;;;23.30;55.80;24.00;101189.00;;;;5049369;28;20209;-53
2023/09/05 04:33:03;;;;;;;8.70;3.13;;;23.20;55.90;24.00;101182.00;;;;5048455;28;20217;-54
2023/09/05 04:35:29;;;;;;;21.97;4.30;;;23.20;55.90;23.90;101186.00;;;;5029610;28;20217;-55
2023/09/05 04:37:55;;;;;;;19.30;4.40;;;23.20;55.80;23.90;101182.00;;;;5046971;28;20220;-55
2023/09/05 04:40:21;;;;;;;12.53;3.87;;;23.20;56.10;23.90;101185.00;;;;5051659;28;20206;-54
2023/09/05 04:42:46;;;;;;;11.93;3.80;;;23.20;56.20;23.90;101192.00;;;;5055663;28;20186;-53
2023/09/05 04:45:12;;;;;;;10.17;3.17;;;23.20;56.20;23.90;101187.00;;;;5049047;28;20672;-53
2023/09/05 04:47:38;;;;;;;7.97;2.97;;;23.20;56.90;23.90;101178.00;;;;5049202;28;20692;-54
2023/09/05 04:50:05;;;;;;;9.70;3.13;;;23.20;56.90;23.90;101184.00;;;;5049339;28;20220;-54
2023/09/05 04:52:30;;;;;;;6.40;2.93;;;23.20;56.40;23.90;101166.00;;;;5048940;28;20182;-54
2023/09/05 04:54:59;;;;;;;7.10;2.87;;;23.20;56.60;23.90;101179.00;;;;5048620;28;20185;-54
2023/09/05 04:57:25;;;;;;;5.43;2.73;;;23.10;56.50;23.90;101178.00;;;;5048499;28;20236;-56
2023/09/05 04:59:57;;;;;;;5.33;2.53;;;23.20;56.60;23.90;101171.00;;;;5048953;28;20185;-55
2023/09/05 05:02:26;;;;;;;3.83;2.63;;;23.10;56.70;23.90;101156.00;;;;5048027;28;20599;-55
2023/09/05 05:04:52;;;;;;;3.47;2.53;;;23.10;56.50;23.90;101180.00;;;;5047086;28;20623;-56
2023/09/05 05:07:17;;;;;;;2.63;2.43;;;23.10;56.40;23.80;101181.00;;;;5048509;28;20225;-56
2023/09/05 05:09:44;;;;;;;2.77;2.57;;;23.10;56.50;23.80;101190.00;;;;5048391;28;20283;-55
2023/09/05 05:12:10;;;;;;;2.90;2.53;;;23.10;56.40;23.80;101188.00;;;;5048627;28;20547;-55
2023/09/05 05:14:35;;;;;;;4.00;2.70;;;23.10;56.20;23.80;101191.00;;;;5049879;28;20185;-55
2023/09/05 05:17:02;;;;;;;3.03;2.50;;;23.10;56.30;23.80;101198.00;;;;5048290;28;20289;-56
2023/09/05 05:19:28;;;;;;;2.60;2.40;;;23.10;56.10;23.80;101196.00;;;;5048493;28;20198;-55
2023/09/05 05:21:55;;;;;;;3.33;2.60;;;23.10;56.30;23.60;101203.00;;;;5048624;28;20420;-56
2023/09/05 05:24:20;;;;;;;4.07;2.80;;;23.00;56.30;23.80;101205.00;;;;5048059;28;20553;-55
2023/09/05 05:26:46;;;;;;;2.70;2.50;;;23.00;55.50;23.70;101209.00;;;;5047797;28;20268;-56
2023/09/05 05:29:12;;;;;;;2.90;2.60;;;23.10;55.40;23.70;101215.00;;;;5048460;28;20445;-56
2023/09/05 05:31:39;;;;;;;2.80;2.60;;;23.10;55.40;23.70;101219.00;;;;5048245;28;20182;-56
2023/09/05 05:34:05;;;;;;;2.90;2.70;;;23.00;55.30;23.60;101215.00;;;;5048167;28;20182;-56
2023/09/05 05:36:31;;;;;;;2.80;2.60;;;23.00;55.30;23.60;101218.00;;;;5046557;28;20186;-56
2023/09/05 05:38:58;;;;;;;3.40;2.57;;;23.00;55.30;23.60;101227.00;;;;5048234;28;20186;-55
2023/09/05 05:41:24;;;;;;;2.80;2.60;;;23.00;55.30;23.50;101230.00;;;;5048292;28;20182;-56
2023/09/05 05:43:50;;;;;;;3.00;2.80;;;23.00;55.30;23.50;101225.00;;;;5047720;28;20189;-56
2023/09/05 05:46:17;;;;;;;2.63;2.43;;;23.00;55.30;23.50;101217.00;;;;5047777;28;20201;-55
2023/09/05 05:48:44;;;;;;;3.40;2.67;;;23.00;55.40;23.50;101231.00;;;;5048384;28;20418;-55
2023/09/05 05:51:10;;;;;;;3.53;2.70;;;23.00;55.60;23.50;101230.00;;;;5048620;28;20228;-56
2023/09/05 05:53:36;;;;;;;2.77;2.53;;;23.00;55.60;23.50;101224.00;;;;5049134;28;20193;-55
2023/09/05 05:56:02;;;;;;;2.90;2.70;;;22.90;55.50;23.50;101224.00;;;;5050742;28;20412;-55
2023/09/05 05:58:28;;;;;;;2.70;2.50;;;22.90;55.70;23.50;101247.00;;;;5051625;28;20205;-56
2023/09/05 06:00:54;;;;;;;2.60;2.40;;;22.90;55.70;23.50;101241.00;;;;5051684;28;20239;-56
2023/09/05 06:03:21;;;;;;;2.60;2.40;;;22.90;55.80;23.40;101238.00;;;;5051514;28;20312;-56
2023/09/05 06:05:47;;;;;;;3.07;2.80;;;22.90;55.90;23.40;101242.00;;;;5049934;28;20608;-55
2023/09/05 06:08:13;;;;;;;2.83;2.63;;;22.80;56.00;23.40;101224.00;;;;5050325;28;20664;-54
2023/09/05 06:10:38;;;;;;;2.60;2.40;;;22.90;56.00;23.40;101177.00;;;;5049766;28;20186;-56
2023/09/05 06:13:04;;;;;;;2.70;2.50;;;22.80;56.00;23.40;101247.00;;;;5034851;28;20669;-55
2023/09/05 06:15:32;;;;;;;3.10;2.80;;;22.80;56.10;23.40;101240.00;;;;5051865;28;20211;-55
2023/09/05 06:17:57;;;;;;;3.50;2.70;;;22.80;56.20;23.40;101246.00;;;;5050104;28;20233;-55
2023/09/05 06:20:23;;;;;;;3.30;2.70;;;22.80;56.40;23.40;101241.00;;;;5051626;28;20202;-55
2023/09/05 06:22:49;;;;;;;5.60;2.90;;;22.80;56.40;23.40;101239.00;;;;5050970;28;20711;-55
2023/09/05 06:25:16;;;;;;;9.80;2.60;;;22.80;56.50;23.40;101240.00;;;;5051022;28;20232;-55
2023/09/05 06:27:43;;;;;;;3.27;2.60;;;22.80;56.40;23.40;101251.00;;;;5053960;28;20213;-56
2023/09/05 06:30:12;;;;;;;5.57;2.70;;;22.80;56.50;23.40;101236.00;;;;5060074;28;20178;-55
2023/09/05 06:32:38;;;;;;;3.03;2.73;;;22.70;56.70;23.40;101248.00;;;;5050831;28;20178;-56
2023/09/05 06:35:07;;;;;;;2.80;2.60;;;22.80;56.90;23.40;101250.00;;;;5050872;28;20189;-57
2023/09/05 06:37:34;;;;;;;2.73;2.53;;;22.80;56.70;23.40;101244.00;;;;5050878;28;20206;-56
2023/09/05 06:40:12;;;;;;;2.93;2.70;;;22.80;56.70;23.40;101249.00;;;;5051302;28;20182;-56
2023/09/05 06:42:41;;;;;;;2.90;2.50;;;22.80;56.80;23.50;101248.00;;;;5052850;28;20182;-56
2023/09/05 06:45:08;;;;;;;2.87;2.60;;;22.80;56.90;23.50;101244.00;;;;5056350;28;20206;-56
2023/09/05 06:47:33;;;;;;;3.10;2.63;;;22.90;57.30;23.50;101241.00;;;;5032597;28;20376;-56
2023/09/05 06:49:59;;;;;;;2.80;2.60;;;22.90;57.30;23.50;101247.00;;;;5049768;28;20178;-56
2023/09/05 06:52:25;;;;;;;4.07;2.60;;;22.90;57.30;23.50;101243.00;;;;5050076;28;20182;-56
2023/09/05 06:54:51;;;;;;;2.70;2.50;;;22.90;57.10;23.50;101257.00;;;;5050148;28;20230;-56
2023/09/05 06:57:17;;;;;;;3.10;2.80;;;22.90;57.10;23.60;101245.00;;;;5049100;28;20194;-56
2023/09/05 06:59:43;;;;;;;3.03;2.70;;;22.90;57.40;23.60;101270.00;;;;5043499;28;20548;-56
2023/09/05 07:02:09;;;;;;;3.20;2.90;;;22.90;57.30;23.60;101259.00;;;;5049773;28;20232;-55
2023/09/05 07:04:36;;;;;;;3.00;2.57;;;22.90;57.30;23.60;101255.00;;;;5049634;28;20631;-54
2023/09/05 07:07:06;;;;;;;3.33;2.80;;;22.90;57.50;23.60;101262.00;;;;5050957;28;20688;-55
2023/09/05 07:09:31;;;;;;;3.00;2.70;;;22.90;57.40;23.60;101253.00;;;;5050470;28;20652;-55
2023/09/05 07:11:57;;;;;;;3.80;2.70;;;22.90;57.40;23.60;101265.00;;;;5050242;28;20171;-56
2023/09/05 07:14:23;;;;;;;2.70;2.50;;;22.90;57.50;23.60;101256.00;;;;5050628;28;20179;-55
2023/09/05 07:16:49;;;;;;;3.53;2.90;;;22.90;57.60;23.60;101260.00;;;;5049605;28;20190;-55
2023/09/05 07:19:16;;;;;;;3.73;2.60;;;22.90;57.80;23.60;101262.00;;;;5050333;28;20171;-55
2023/09/05 07:21:42;;;;;;;2.80;2.60;;;22.90;57.80;23.60;101261.00;;;;5050437;28;20638;-55
2023/09/05 07:24:10;;;;;;;2.80;2.60;;;23.00;57.90;23.60;101267.00;;;;5050193;28;20198;-55
2023/09/05 07:26:38;;;;;;;2.73;2.53;;;22.90;57.90;23.60;101262.00;;;;5049484;28;20319;-56
2023/09/05 07:29:08;;;;;;;2.73;2.53;;;22.90;58.00;23.60;101267.00;;;;5050001;28;20189;-55
2023/09/05 07:31:34;;;;;;;2.50;2.30;;;23.00;58.10;23.60;101266.00;;;;5049863;28;20273;-55
2023/09/05 07:33:59;;;;;;;3.00;2.70;;;23.00;58.20;23.70;101271.00;;;;5049986;28;20351;-56
2023/09/05 07:36:27;;;;;;;2.90;2.70;;;23.00;58.20;23.70;101269.00;;;;5049731;28;20637;-56
2023/09/05 07:38:53;;;;;;;2.83;2.60;;;23.00;58.20;23.70;101268.00;;;;5050322;28;20185;-56
2023/09/05 07:41:18;;;;;;;3.00;2.70;;;23.00;58.30;23.70;101268.00;;;;5032770;28;20640;-56
2023/09/05 07:43:44;;;;;;;2.90;2.70;;;23.00;58.40;23.70;101274.00;;;;5050501;28;20640;-55
2023/09/05 07:46:11;;;;;;;2.93;2.73;;;23.00;58.40;23.80;101279.00;;;;5050138;28;20206;-56
2023/09/05 07:48:39;;;;;;;3.13;2.83;;;23.00;58.40;23.80;101270.00;;;;5049906;28;20668;-55
2023/09/05 07:51:07;;;;;;;4.50;2.90;;;23.10;58.50;23.80;101274.00;;;;5032185;28;20186;-55
2023/09/05 07:53:34;;;;;;;3.00;2.80;;;23.10;58.50;23.80;101276.00;;;;5050422;28;20268;-56
2023/09/05 07:56:00;;;;;;;2.90;2.50;;;23.00;58.50;23.80;101272.00;;;;5012513;28;20186;-55
2023/09/05 07:58:27;;;;;;;2.70;2.50;;;23.10;58.50;23.90;101273.00;;;;5012471;28;20285;-55
2023/09/05 08:00:53;;;;;;;3.17;2.80;;;23.10;58.50;23.90;101268.00;;;;5035914;28;20775;-55
2023/09/05 08:03:20;;;;;;;2.93;2.73;;;23.10;58.60;23.90;101274.00;;;;5031348;28;20170;-56
2023/09/05 08:05:45;;;;;;;4.05;2.70;;;23.20;58.60;23.90;101260.00;;;;5049220;28;20194;-55
2023/09/05 08:08:13;;;;;;;3.73;3.00;;;23.10;58.90;23.90;101270.00;;;;5028029;28;20229;-55
2023/09/05 08:10:39;;;;;;;3.03;2.83;;;23.10;58.90;23.90;101272.00;;;;5049460;28;20244;-54
2023/09/05 08:13:05;;;;;;;6.00;3.10;;;23.20;59.00;23.90;101268.00;;;;5050457;28;20174;-55
2023/09/05 08:15:31;;;;;;;3.88;2.80;;;23.10;59.20;23.90;101265.00;;;;5047154;28;20686;-54
2023/09/05 08:17:57;;;;;;;3.73;2.87;;;23.20;59.40;23.90;101272.00;;;;5048596;28;20247;-54
2023/09/05 08:20:22;;;;;;;4.18;2.88;;;23.20;59.40;23.90;101263.00;;;;5049218;28;20178;-53
2023/09/05 08:22:48;;;;;;;3.08;2.78;;;23.20;59.50;24.00;101271.00;;;;5049501;28;20206;-54
2023/09/05 08:25:15;;;;;;;4.15;2.78;;;23.20;59.50;24.00;101278.00;;;;5049423;28;20198;-54
2023/09/05 08:27:45;;;;;;;3.10;2.80;;;23.20;59.60;24.00;101270.00;;;;5048101;28;20201;-55
2023/09/05 08:30:11;;;;;;;5.87;3.07;;;23.20;59.60;24.00;101271.00;;;;5049403;28;20236;-54
2023/09/05 08:32:40;;;;;;;2.72;2.45;;;23.20;59.70;24.00;101283.00;;;;5052934;28;20238;-54
2023/09/05 08:35:09;;;;;;;4.05;2.80;;;23.20;59.80;24.00;101278.00;;;;5053845;28;20208;-55
2023/09/05 08:37:35;;;;;;;3.10;2.72;;;23.20;59.80;24.00;101258.00;;;;5049026;28;20256;-54
2023/09/05 08:40:03;;;;;;;2.90;2.70;;;23.20;60.00;24.00;101268.00;;;;5049512;28;20198;-56
2023/09/05 08:42:30;;;;;;;3.05;2.60;;;23.20;60.10;24.10;101260.00;;;;5049422;28;20190;-55
2023/09/05 08:44:58;;;;;;;3.08;2.78;;;23.20;60.30;24.10;101254.00;;;;5049357;28;20217;-55
2023/09/05 08:47:26;;;;;;;2.63;2.42;;;23.20;60.30;24.10;101257.00;;;;5051199;28;20294;-55
2023/09/05 08:49:52;;;;;;;2.65;2.45;;;23.20;60.50;24.10;101245.00;;;;5054182;28;20257;-56
2023/09/05 08:52:17;;;;;;;2.60;2.40;;;23.20;60.50;24.10;101256.00;;;;5048551;28;20193;-55
2023/09/05 08:54:44;;;;;;;2.90;2.70;;;23.30;60.80;24.10;101240.00;;;;5047258;28;20723;-55
2023/09/05 08:57:11;;;;;;;2.70;2.50;;;23.30;60.80;24.10;101244.00;;;;5047279;28;20298;-55
2023/09/05 08:59:37;;;;;;;2.65;2.42;;;23.30;60.90;24.10;101243.00;;;;5030826;28;20174;-56
2023/09/05 09:02:03;;;;;;;2.85;2.65;;;23.30;61.10;24.10;101241.00;;;;5047166;28;20174;-54
2023/09/05 09:04:29;;;;;;;2.70;2.50;;;23.30;61.20;24.20;101237.00;;;;5046938;28;20178;-54
2023/09/05 09:06:56;;;;;;;2.78;2.58;;;23.30;61.30;24.20;101237.00;;;;5030404;28;20202;-54
2023/09/05 09:09:38;;;;;;;2.72;2.50;;;23.30;61.40;24.20;101241.00;;;;5049455;28;20189;-54
2023/09/05 09:12:04;;;;;;;2.63;2.42;;;23.30;61.60;24.20;101228.00;;;;5048261;28;20759;-55
2023/09/05 09:14:30;;;;;;;2.70;2.50;;;23.40;61.90;24.20;101235.00;;;;5050227;28;20190;-56
2023/09/05 09:17:00;;;;;;;2.92;2.63;;;23.40;62.00;24.20;101233.00;;;;5045613;28;20858;-55
2023/09/05 09:19:29;;;;;;;2.70;2.50;;;23.40;62.10;24.20;101227.00;;;;5047125;28;20178;-56
2023/09/05 09:21:58;;;;;;;2.60;2.40;;;23.40;62.10;24.20;101230.00;;;;5047961;28;20642;-56
2023/09/05 09:24:25;;;;;;;3.55;2.45;;;23.40;62.10;24.20;101228.00;;;;5039100;28;20212;-55
2023/09/05 09:26:53;;;;;;;3.45;2.67;;;23.40;62.10;24.30;101232.00;;;;5028660;28;20202;-54
2023/09/05 09:29:18;;;;;;;2.67;2.47;;;23.40;62.40;24.30;101237.00;;;;5051014;28;20193;-55
2023/09/05 09:31:46;;;;;;;2.65;2.42;;;23.40;62.70;24.30;101207.00;;;;5052784;28;20185;-55
2023/09/05 09:34:13;;;;;;;2.60;2.40;;;23.40;62.90;24.30;101229.00;;;;5049025;28;20269;-56
2023/09/05 09:36:38;;;;;;;2.90;2.40;;;23.40;63.10;24.30;101223.00;;;;5050457;28;20206;-55
2023/09/05 09:39:09;;;;;;;2.47;2.28;;;23.40;63.20;24.30;101229.00;;;;5050807;28;20189;-56
2023/09/05 09:41:41;;;;;;;2.80;2.60;;;23.40;63.20;24.30;101237.00;;;;5051455;28;20687;-56
2023/09/05 09:44:08;;;;;;;2.90;2.30;;;23.40;63.50;24.30;101222.00;;;;5051192;28;20279;-56
2023/09/05 09:46:34;;;;;;;2.65;2.45;;;23.50;63.70;24.40;101237.00;;;;5050936;28;20272;-56
2023/09/05 09:48:59;;;;;;;2.60;2.40;;;23.50;63.90;24.40;101232.00;;;;5034095;28;20178;-55
2023/09/05 09:51:25;;;;;;;2.60;2.40;;;23.50;64.10;24.40;101226.00;;;;5033378;28;20261;-55
2023/09/05 09:53:51;;;;;;;2.55;2.35;;;23.50;64.30;24.40;101221.00;;;;5050369;28;20186;-55
2023/09/05 09:56:19;;;;;;;2.63;2.30;;;23.50;64.40;24.40;101217.00;;;;5048717;28;20182;-55
2023/09/05 09:58:45;;;;;;;2.38;2.25;;;23.50;64.50;24.40;101236.00;;;;5049016;28;20261;-55
2023/09/05 10:01:14;;;;;;;2.40;2.30;;;23.50;64.60;24.50;101220.00;;;;5050189;28;20186;-55
2023/09/05 10:03:44;;;;;;;2.63;2.42;;;23.60;64.70;24.50;101217.00;;;;5051752;28;20189;-55
2023/09/05 10:06:10;;;;;;;2.60;2.40;;;23.60;65.10;24.30;101216.00;;;;5051888;28;20217;-55
2023/09/05 10:08:36;;;;;;;2.75;2.30;;;23.60;65.10;24.50;101207.00;;;;5051382;28;20202;-55
2023/09/05 10:11:02;;;;;;;2.40;2.20;;;23.60;65.10;24.50;101215.00;;;;5051601;28;20574;-55
2023/09/05 10:13:32;;;;;;;2.47;2.28;;;23.70;65.20;24.50;101216.00;;;;5053441;28;20178;-56
2023/09/05 10:16:01;;;;;;;2.53;2.33;;;23.70;65.60;24.60;101214.00;;;;5050867;28;20186;-57
2023/09/05 10:18:28;;;;;;;2.50;2.30;;;23.70;65.50;24.60;101195.00;;;;5049951;28;20202;-55
2023/09/05 10:20:55;;;;;;;2.53;2.33;;;23.80;66.10;24.60;101212.00;;;;5049811;28;20217;-55
2023/09/05 10:23:20;;;;;;;2.33;2.13;;;23.80;66.10;24.60;101203.00;;;;5049767;28;20178;-55
2023/09/05 10:25:46;;;;;;;2.25;2.15;;;23.80;65.90;24.60;101203.00;;;;5049821;28;20657;-55
2023/09/05 10:28:12;;;;;;;2.55;2.35;;;23.80;66.00;24.60;101201.00;;;;5017145;28;20194;-54
2023/09/05 10:30:40;;;;;;;3.35;2.30;;;23.80;66.20;24.60;101207.00;;;;5049502;28;20663;-55
2023/09/05 10:33:10;;;;;;;2.20;2.10;;;23.90;66.30;24.70;101200.00;;;;5049335;28;20617;-55
2023/09/05 10:35:35;;;;;;;3.17;2.33;;;23.90;66.40;24.70;101207.00;;;;5049922;28;20192;-62
2023/09/05 10:38:04;;;;;;;2.30;2.20;;;23.90;66.30;24.70;101192.00;;;;5031317;28;20206;-55
2023/09/05 10:40:35;;;;;;;2.20;2.00;;;23.90;66.50;24.70;101203.00;;;;5015977;28;20186;-54
2023/09/05 10:43:05;;;;;;;2.22;2.08;;;23.90;66.30;24.70;101208.00;;;;5050778;28;20178;-57
2023/09/05 10:45:33;;;;;;;2.22;2.13;;;23.90;66.50;24.70;101210.00;;;;5050182;28;20202;-54